sensor_id;sensor_type;location;lat;lon;timestamp;P1;durP1;ratioP1;P2;durP2;ratioP2
11996;SDS011;6058;48.704;9.474;2024-03-29T00:02:11;12.20;;;4.63;;
11996;SDS011;6058;48.704;9.474;2024-03-29T00:04:37;18.40;;;6.47;;
11996;SDS011;6058;48.704;9.474;2024-03-29T00:07:04;9.43;;;5.10;;
11996;SDS011;6058;48.704;9.474;2024-03-29T00:09:30;7.00;;;3.70;;
11996;SDS011;6058;48.704;9.474;2024-03-29T00:11:56;6.47;;;2.97;;
11996;SDS011;6058;48.704;9.474;2024-03-29T00:14:22;3.73;;;2.60;;
11996;SDS011;6058;48.704;9.474;2024-03-29T00:16:48;4.83;;;2.83;;
11996;SDS011;6058;48.704;9.474;2024-03-29T00:19:16;6.13;;;3.07;;
11996;SDS011;6058;48.704;9.474;2024-03-29T00:21:42;3.23;;;2.20;;
11996;SDS011;6058;48.704;9.474;2024-03-29T00:24:08;3.53;;;2.10;;
11996;SDS011;6058;48.704;9.474;2024-03-29T00:26:35;3.77;;;2.57;;
11996;SDS011;6058;48.704;9.474;2024-03-29T00:29:01;3.97;;;2.50;;
11996;SDS011;6058;48.704;9.474;2024-03-29T00:31:27;3.30;;;2.60;;
11996;SDS011;6058;48.704;9.474;2024-03-29T00:33:54;6.63;;;3.03;;
11996;SDS011;6058;48.704;9.474;2024-03-29T00:36:21;5.67;;;2.67;;
11996;SDS011;6058;48.704;9.474;2024-03-29T00:38:48;4.23;;;2.50;;
11996;SDS011;6058;48.704;9.474;2024-03-29T00:41:15;3.63;;;2.40;;
11996;SDS011;6058;48.704;9.474;2024-03-29T00:43:41;3.53;;;2.37;;
11996;SDS011;6058;48.704;9.474;2024-03-29T00:46:07;3.63;;;2.27;;
11996;SDS011;6058;48.704;9.474;2024-03-29T00:48:33;4.20;;;1.97;;
11996;SDS011;6058;48.704;9.474;2024-03-29T00:50:59;5.03;;;2.10;;
11996;SDS011;6058;48.704;9.474;2024-03-29T00:53:27;4.13;;;2.37;;
11996;SDS011;6058;48.704;9.474;2024-03-29T00:55:53;3.23;;;2.37;;
11996;SDS011;6058;48.704;9.474;2024-03-29T00:58:19;3.97;;;2.20;;
11996;SDS011;6058;48.704;9.474;2024-03-29T01:00:45;4.47;;;2.23;;
11996;SDS011;6058;48.704;9.474;2024-03-29T01:03:12;2.50;;;1.70;;
11996;SDS011;6058;48.704;9.474;2024-03-29T01:05:38;2.90;;;2.13;;
11996;SDS011;6058;48.704;9.474;2024-03-29T01:08:04;2.70;;;1.80;;
11996;SDS011;6058;48.704;9.474;2024-03-29T01:10:32;2.57;;;1.80;;
11996;SDS011;6058;48.704;9.474;2024-03-29T01:12:58;2.73;;;1.83;;
11996;SDS011;6058;48.704;9.474;2024-03-29T01:15:25;2.73;;;1.90;;
11996;SDS011;6058;48.704;9.474;2024-03-29T01:17:51;3.07;;;1.90;;
11996;SDS011;6058;48.704;9.474;2024-03-29T01:20:17;4.83;;;1.77;;
11996;SDS011;6058;48.704;9.474;2024-03-29T01:22:43;3.07;;;2.07;;
11996;SDS011;6058;48.704;9.474;2024-03-29T01:25:09;4.13;;;1.80;;
11996;SDS011;6058;48.704;9.474;2024-03-29T01:27:37;1.83;;;1.63;;
11996;SDS011;6058;48.704;9.474;2024-03-29T01:30:03;2.93;;;1.43;;
11996;SDS011;6058;48.704;9.474;2024-03-29T01:32:30;2.00;;;1.27;;
11996;SDS011;6058;48.704;9.474;2024-03-29T01:34:58;1.97;;;1.40;;
11996;SDS011;6058;48.704;9.474;2024-03-29T01:37:24;1.93;;;1.57;;
11996;SDS011;6058;48.704;9.474;2024-03-29T01:39:51;1.80;;;1.20;;
11996;SDS011;6058;48.704;9.474;2024-03-29T01:42:17;1.50;;;1.40;;
11996;SDS011;6058;48.704;9.474;2024-03-29T01:44:44;3.33;;;1.60;;
11996;SDS011;6058;48.704;9.474;2024-03-29T01:47:12;1.60;;;1.20;;
11996;SDS011;6058;48.704;9.474;2024-03-29T01:49:39;2.07;;;1.57;;
11996;SDS011;6058;48.704;9.474;2024-03-29T01:52:06;2.53;;;1.50;;
11996;SDS011;6058;48.704;9.474;2024-03-29T01:54:33;1.77;;;1.47;;
11996;SDS011;6058;48.704;9.474;2024-03-29T01:57:00;2.57;;;1.40;;
11996;SDS011;6058;48.704;9.474;2024-03-29T01:59:28;2.57;;;1.63;;
11996;SDS011;6058;48.704;9.474;2024-03-29T02:01:56;1.47;;;1.37;;
11996;SDS011;6058;48.704;9.474;2024-03-29T02:04:25;1.83;;;1.10;;
11996;SDS011;6058;48.704;9.474;2024-03-29T02:06:52;2.30;;;1.30;;
11996;SDS011;6058;48.704;9.474;2024-03-29T02:09:19;1.80;;;1.47;;
11996;SDS011;6058;48.704;9.474;2024-03-29T02:11:46;2.13;;;1.30;;
11996;SDS011;6058;48.704;9.474;2024-03-29T02:14:13;1.50;;;1.40;;
11996;SDS011;6058;48.704;9.474;2024-03-29T02:16:40;1.87;;;1.30;;
11996;SDS011;6058;48.704;9.474;2024-03-29T02:19:09;2.83;;;1.40;;
11996;SDS011;6058;48.704;9.474;2024-03-29T02:21:36;1.93;;;1.20;;
11996;SDS011;6058;48.704;9.474;2024-03-29T02:24:07;1.43;;;1.10;;
11996;SDS011;6058;48.704;9.474;2024-03-29T02:26:34;1.03;;;0.90;;
11996;SDS011;6058;48.704;9.474;2024-03-29T02:29:06;1.93;;;1.00;;
11996;SDS011;6058;48.704;9.474;2024-03-29T02:31:33;0.90;;;0.87;;
11996;SDS011;6058;48.704;9.474;2024-03-29T02:34:00;1.57;;;0.90;;
11996;SDS011;6058;48.704;9.474;2024-03-29T02:36:28;0.90;;;0.90;;
11996;SDS011;6058;48.704;9.474;2024-03-29T02:38:55;1.00;;;0.90;;
11996;SDS011;6058;48.704;9.474;2024-03-29T02:41:24;0.70;;;0.70;;
11996;SDS011;6058;48.704;9.474;2024-03-29T02:43:51;2.37;;;0.80;;
11996;SDS011;6058;48.704;9.474;2024-03-29T02:46:19;0.70;;;0.60;;
11996;SDS011;6058;48.704;9.474;2024-03-29T02:48:46;0.63;;;0.63;;
11996;SDS011;6058;48.704;9.474;2024-03-29T02:51:12;1.70;;;0.70;;
11996;SDS011;6058;48.704;9.474;2024-03-29T02:53:39;1.00;;;0.90;;
11996;SDS011;6058;48.704;9.474;2024-03-29T02:56:05;0.60;;;0.53;;
11996;SDS011;6058;48.704;9.474;2024-03-29T02:58:34;1.00;;;0.90;;
11996;SDS011;6058;48.704;9.474;2024-03-29T03:01:04;0.70;;;0.70;;
11996;SDS011;6058;48.704;9.474;2024-03-29T03:03:32;0.77;;;0.70;;
11996;SDS011;6058;48.704;9.474;2024-03-29T03:05:58;1.73;;;1.00;;
11996;SDS011;6058;48.704;9.474;2024-03-29T03:08:25;1.10;;;0.90;;
11996;SDS011;6058;48.704;9.474;2024-03-29T03:11:10;1.03;;;0.67;;
11996;SDS011;6058;48.704;9.474;2024-03-29T03:13:38;2.30;;;0.80;;
11996;SDS011;6058;48.704;9.474;2024-03-29T03:16:06;0.80;;;0.80;;
11996;SDS011;6058;48.704;9.474;2024-03-29T03:18:33;1.33;;;0.77;;
11996;SDS011;6058;48.704;9.474;2024-03-29T03:20:59;1.10;;;0.67;;
11996;SDS011;6058;48.704;9.474;2024-03-29T03:23:26;0.80;;;0.80;;
11996;SDS011;6058;48.704;9.474;2024-03-29T03:25:56;1.50;;;0.83;;
11996;SDS011;6058;48.704;9.474;2024-03-29T03:28:23;1.33;;;0.70;;
11996;SDS011;6058;48.704;9.474;2024-03-29T03:30:51;1.13;;;0.70;;
11996;SDS011;6058;48.704;9.474;2024-03-29T03:33:18;1.17;;;0.70;;
11996;SDS011;6058;48.704;9.474;2024-03-29T03:35:44;2.03;;;1.03;;
11996;SDS011;6058;48.704;9.474;2024-03-29T03:38:12;0.63;;;0.60;;
11996;SDS011;6058;48.704;9.474;2024-03-29T03:40:38;0.97;;;0.70;;
11996;SDS011;6058;48.704;9.474;2024-03-29T03:43:06;0.70;;;0.70;;
11996;SDS011;6058;48.704;9.474;2024-03-29T03:45:33;1.57;;;0.80;;
11996;SDS011;6058;48.704;9.474;2024-03-29T03:48:03;0.73;;;0.70;;
11996;SDS011;6058;48.704;9.474;2024-03-29T03:50:29;0.90;;;0.90;;
11996;SDS011;6058;48.704;9.474;2024-03-29T03:52:56;0.87;;;0.87;;
11996;SDS011;6058;48.704;9.474;2024-03-29T03:55:22;1.63;;;0.80;;
11996;SDS011;6058;48.704;9.474;2024-03-29T03:57:50;0.63;;;0.53;;
11996;SDS011;6058;48.704;9.474;2024-03-29T04:00:17;0.93;;;0.87;;
11996;SDS011;6058;48.704;9.474;2024-03-29T04:02:46;1.10;;;0.80;;
11996;SDS011;6058;48.704;9.474;2024-03-29T04:05:14;2.73;;;0.80;;
11996;SDS011;6058;48.704;9.474;2024-03-29T04:07:41;0.60;;;0.60;;
11996;SDS011;6058;48.704;9.474;2024-03-29T04:10:08;0.60;;;0.60;;
11996;SDS011;6058;48.704;9.474;2024-03-29T04:12:35;1.07;;;0.90;;
11996;SDS011;6058;48.704;9.474;2024-03-29T04:15:01;1.57;;;1.13;;
11996;SDS011;6058;48.704;9.474;2024-03-29T04:17:29;2.53;;;0.93;;
11996;SDS011;6058;48.704;9.474;2024-03-29T04:19:55;0.87;;;0.83;;
11996;SDS011;6058;48.704;9.474;2024-03-29T04:22:24;1.23;;;0.60;;
11996;SDS011;6058;48.704;9.474;2024-03-29T04:24:50;0.87;;;0.60;;
11996;SDS011;6058;48.704;9.474;2024-03-29T04:27:17;0.60;;;0.60;;
11996;SDS011;6058;48.704;9.474;2024-03-29T04:29:43;0.67;;;0.60;;
11996;SDS011;6058;48.704;9.474;2024-03-29T04:32:10;1.00;;;0.60;;
11996;SDS011;6058;48.704;9.474;2024-03-29T04:34:36;1.00;;;0.70;;
11996;SDS011;6058;48.704;9.474;2024-03-29T04:37:04;0.60;;;0.60;;
11996;SDS011;6058;48.704;9.474;2024-03-29T04:39:32;0.60;;;0.60;;
11996;SDS011;6058;48.704;9.474;2024-03-29T04:41:59;0.63;;;0.63;;
11996;SDS011;6058;48.704;9.474;2024-03-29T04:44:27;1.87;;;0.57;;
11996;SDS011;6058;48.704;9.474;2024-03-29T04:46:54;0.63;;;0.63;;
11996;SDS011;6058;48.704;9.474;2024-03-29T04:49:21;0.77;;;0.67;;
11996;SDS011;6058;48.704;9.474;2024-03-29T04:51:55;0.57;;;0.50;;
11996;SDS011;6058;48.704;9.474;2024-03-29T04:54:22;1.13;;;0.87;;
11996;SDS011;6058;48.704;9.474;2024-03-29T04:56:51;1.30;;;0.80;;
11996;SDS011;6058;48.704;9.474;2024-03-29T04:59:18;1.40;;;0.80;;
11996;SDS011;6058;48.704;9.474;2024-03-29T05:01:46;0.80;;;0.80;;
11996;SDS011;6058;48.704;9.474;2024-03-29T05:04:15;0.30;;;0.30;;
11996;SDS011;6058;48.704;9.474;2024-03-29T05:06:50;0.70;;;0.70;;
11996;SDS011;6058;48.704;9.474;2024-03-29T05:09:17;1.03;;;0.73;;
11996;SDS011;6058;48.704;9.474;2024-03-29T05:11:44;0.70;;;0.70;;
11996;SDS011;6058;48.704;9.474;2024-03-29T05:14:13;3.07;;;0.60;;
11996;SDS011;6058;48.704;9.474;2024-03-29T05:16:41;2.07;;;0.60;;
11996;SDS011;6058;48.704;9.474;2024-03-29T05:19:09;1.60;;;0.70;;
11996;SDS011;6058;48.704;9.474;2024-03-29T05:21:36;0.60;;;0.60;;
11996;SDS011;6058;48.704;9.474;2024-03-29T05:24:03;0.53;;;0.50;;
11996;SDS011;6058;48.704;9.474;2024-03-29T05:26:30;0.83;;;0.60;;
11996;SDS011;6058;48.704;9.474;2024-03-29T05:28:57;0.40;;;0.40;;
11996;SDS011;6058;48.704;9.474;2024-03-29T05:31:26;0.70;;;0.60;;
11996;SDS011;6058;48.704;9.474;2024-03-29T05:33:53;0.33;;;0.33;;
11996;SDS011;6058;48.704;9.474;2024-03-29T05:36:20;1.10;;;0.70;;
11996;SDS011;6058;48.704;9.474;2024-03-29T05:38:48;0.60;;;0.60;;
11996;SDS011;6058;48.704;9.474;2024-03-29T05:41:15;0.47;;;0.43;;
11996;SDS011;6058;48.704;9.474;2024-03-29T05:43:43;1.60;;;0.70;;
11996;SDS011;6058;48.704;9.474;2024-03-29T05:46:17;0.50;;;0.50;;
11996;SDS011;6058;48.704;9.474;2024-03-29T05:48:45;0.57;;;0.57;;
11996;SDS011;6058;48.704;9.474;2024-03-29T05:51:12;1.03;;;0.70;;
11996;SDS011;6058;48.704;9.474;2024-03-29T05:53:47;0.50;;;0.50;;
11996;SDS011;6058;48.704;9.474;2024-03-29T05:56:14;0.50;;;0.50;;
11996;SDS011;6058;48.704;9.474;2024-03-29T05:58:42;0.60;;;0.60;;
11996;SDS011;6058;48.704;9.474;2024-03-29T06:01:10;0.50;;;0.50;;
11996;SDS011;6058;48.704;9.474;2024-03-29T06:03:37;0.40;;;0.40;;
11996;SDS011;6058;48.704;9.474;2024-03-29T06:06:06;0.43;;;0.40;;
11996;SDS011;6058;48.704;9.474;2024-03-29T06:08:35;0.40;;;0.40;;
11996;SDS011;6058;48.704;9.474;2024-03-29T06:11:02;0.53;;;0.50;;
11996;SDS011;6058;48.704;9.474;2024-03-29T06:13:30;0.40;;;0.40;;
11996;SDS011;6058;48.704;9.474;2024-03-29T06:16:11;0.40;;;0.40;;
11996;SDS011;6058;48.704;9.474;2024-03-29T06:18:55;0.83;;;0.43;;
11996;SDS011;6058;48.704;9.474;2024-03-29T06:21:24;0.53;;;0.50;;
11996;SDS011;6058;48.704;9.474;2024-03-29T06:23:53;0.50;;;0.50;;
11996;SDS011;6058;48.704;9.474;2024-03-29T06:26:20;0.50;;;0.50;;
11996;SDS011;6058;48.704;9.474;2024-03-29T06:28:47;0.47;;;0.47;;
11996;SDS011;6058;48.704;9.474;2024-03-29T06:31:14;0.53;;;0.53;;
11996;SDS011;6058;48.704;9.474;2024-03-29T06:33:41;0.50;;;0.40;;
11996;SDS011;6058;48.704;9.474;2024-03-29T06:36:08;1.00;;;1.00;;
11996;SDS011;6058;48.704;9.474;2024-03-29T06:38:37;0.67;;;0.67;;
11996;SDS011;6058;48.704;9.474;2024-03-29T06:41:04;1.07;;;0.63;;
11996;SDS011;6058;48.704;9.474;2024-03-29T06:43:31;0.40;;;0.40;;
11996;SDS011;6058;48.704;9.474;2024-03-29T06:45:58;1.43;;;0.70;;
11996;SDS011;6058;48.704;9.474;2024-03-29T06:48:27;0.63;;;0.63;;
11996;SDS011;6058;48.704;9.474;2024-03-29T06:50:56;0.47;;;0.47;;
11996;SDS011;6058;48.704;9.474;2024-03-29T06:53:23;0.60;;;0.57;;
11996;SDS011;6058;48.704;9.474;2024-03-29T06:55:54;0.70;;;0.70;;
11996;SDS011;6058;48.704;9.474;2024-03-29T06:58:21;0.60;;;0.50;;
11996;SDS011;6058;48.704;9.474;2024-03-29T07:00:48;0.50;;;0.50;;
11996;SDS011;6058;48.704;9.474;2024-03-29T07:03:16;0.67;;;0.60;;
11996;SDS011;6058;48.704;9.474;2024-03-29T07:05:43;0.50;;;0.50;;
11996;SDS011;6058;48.704;9.474;2024-03-29T07:08:11;0.50;;;0.50;;
11996;SDS011;6058;48.704;9.474;2024-03-29T07:10:38;0.60;;;0.60;;
11996;SDS011;6058;48.704;9.474;2024-03-29T07:13:08;0.70;;;0.70;;
11996;SDS011;6058;48.704;9.474;2024-03-29T07:15:35;1.33;;;0.40;;
11996;SDS011;6058;48.704;9.474;2024-03-29T07:18:03;2.53;;;0.70;;
11996;SDS011;6058;48.704;9.474;2024-03-29T07:20:30;0.60;;;0.60;;
11996;SDS011;6058;48.704;9.474;2024-03-29T07:22:57;0.47;;;0.47;;
11996;SDS011;6058;48.704;9.474;2024-03-29T07:25:24;0.60;;;0.60;;
11996;SDS011;6058;48.704;9.474;2024-03-29T07:27:52;0.67;;;0.67;;
11996;SDS011;6058;48.704;9.474;2024-03-29T07:30:20;0.70;;;0.70;;
11996;SDS011;6058;48.704;9.474;2024-03-29T07:32:48;0.60;;;0.60;;
11996;SDS011;6058;48.704;9.474;2024-03-29T07:35:15;0.60;;;0.60;;
11996;SDS011;6058;48.704;9.474;2024-03-29T07:37:43;2.40;;;0.87;;
11996;SDS011;6058;48.704;9.474;2024-03-29T07:40:12;1.00;;;0.87;;
11996;SDS011;6058;48.704;9.474;2024-03-29T07:42:39;1.60;;;1.50;;
11996;SDS011;6058;48.704;9.474;2024-03-29T07:45:07;0.97;;;0.93;;
11996;SDS011;6058;48.704;9.474;2024-03-29T07:47:36;1.13;;;1.00;;
11996;SDS011;6058;48.704;9.474;2024-03-29T07:50:03;1.03;;;0.73;;
11996;SDS011;6058;48.704;9.474;2024-03-29T07:52:31;0.73;;;0.73;;
11996;SDS011;6058;48.704;9.474;2024-03-29T07:54:58;1.80;;;0.87;;
11996;SDS011;6058;48.704;9.474;2024-03-29T07:57:25;1.13;;;0.70;;
11996;SDS011;6058;48.704;9.474;2024-03-29T07:59:53;1.00;;;0.90;;
11996;SDS011;6058;48.704;9.474;2024-03-29T08:02:20;0.83;;;0.80;;
11996;SDS011;6058;48.704;9.474;2024-03-29T08:04:51;1.50;;;1.10;;
11996;SDS011;6058;48.704;9.474;2024-03-29T08:07:18;1.10;;;0.87;;
11996;SDS011;6058;48.704;9.474;2024-03-29T08:09:46;1.73;;;1.07;;
11996;SDS011;6058;48.704;9.474;2024-03-29T08:12:13;0.77;;;0.77;;
11996;SDS011;6058;48.704;9.474;2024-03-29T08:14:40;1.17;;;1.00;;
11996;SDS011;6058;48.704;9.474;2024-03-29T08:17:07;2.50;;;1.10;;
11996;SDS011;6058;48.704;9.474;2024-03-29T08:19:34;0.90;;;0.90;;
11996;SDS011;6058;48.704;9.474;2024-03-29T08:22:03;1.93;;;0.90;;
11996;SDS011;6058;48.704;9.474;2024-03-29T08:24:30;2.00;;;0.90;;
11996;SDS011;6058;48.704;9.474;2024-03-29T08:26:57;1.07;;;1.00;;
11996;SDS011;6058;48.704;9.474;2024-03-29T08:29:27;2.90;;;2.70;;
11996;SDS011;6058;48.704;9.474;2024-03-29T08:31:54;2.37;;;1.70;;
11996;SDS011;6058;48.704;9.474;2024-03-29T08:34:21;2.20;;;2.00;;
11996;SDS011;6058;48.704;9.474;2024-03-29T08:36:48;3.57;;;3.20;;
11996;SDS011;6058;48.704;9.474;2024-03-29T08:39:17;4.77;;;4.43;;
11996;SDS011;6058;48.704;9.474;2024-03-29T08:41:44;2.70;;;1.80;;
11996;SDS011;6058;48.704;9.474;2024-03-29T08:44:11;1.70;;;1.50;;
11996;SDS011;6058;48.704;9.474;2024-03-29T08:46:38;0.90;;;0.90;;
11996;SDS011;6058;48.704;9.474;2024-03-29T08:49:04;5.70;;;3.80;;
11996;SDS011;6058;48.704;9.474;2024-03-29T08:51:31;3.73;;;2.60;;
11996;SDS011;6058;48.704;9.474;2024-03-29T08:53:58;5.37;;;4.23;;
11996;SDS011;6058;48.704;9.474;2024-03-29T08:56:31;1.87;;;1.73;;
11996;SDS011;6058;48.704;9.474;2024-03-29T08:58:59;2.27;;;1.40;;
11996;SDS011;6058;48.704;9.474;2024-03-29T09:01:32;1.20;;;1.10;;
11996;SDS011;6058;48.704;9.474;2024-03-29T09:03:59;1.87;;;1.23;;
11996;SDS011;6058;48.704;9.474;2024-03-29T09:06:26;2.57;;;1.10;;
11996;SDS011;6058;48.704;9.474;2024-03-29T09:08:53;1.90;;;0.60;;
11996;SDS011;6058;48.704;9.474;2024-03-29T09:11:20;1.23;;;0.70;;
11996;SDS011;6058;48.704;9.474;2024-03-29T09:13:49;0.60;;;0.60;;
11996;SDS011;6058;48.704;9.474;2024-03-29T09:16:16;0.70;;;0.70;;
11996;SDS011;6058;48.704;9.474;2024-03-29T09:18:43;1.40;;;0.73;;
11996;SDS011;6058;48.704;9.474;2024-03-29T09:21:10;1.07;;;1.00;;
11996;SDS011;6058;48.704;9.474;2024-03-29T09:23:37;1.30;;;1.07;;
11996;SDS011;6058;48.704;9.474;2024-03-29T09:26:06;11.13;;;4.83;;
11996;SDS011;6058;48.704;9.474;2024-03-29T09:28:33;2.03;;;1.83;;
11996;SDS011;6058;48.704;9.474;2024-03-29T09:31:03;1.47;;;0.93;;
11996;SDS011;6058;48.704;9.474;2024-03-29T09:33:30;4.40;;;1.10;;
11996;SDS011;6058;48.704;9.474;2024-03-29T09:35:58;1.00;;;0.93;;
11996;SDS011;6058;48.704;9.474;2024-03-29T09:38:25;1.50;;;1.40;;
11996;SDS011;6058;48.704;9.474;2024-03-29T09:40:54;1.90;;;1.50;;
11996;SDS011;6058;48.704;9.474;2024-03-29T09:43:26;0.93;;;0.93;;
11996;SDS011;6058;48.704;9.474;2024-03-29T09:45:54;1.57;;;1.10;;
11996;SDS011;6058;48.704;9.474;2024-03-29T09:48:23;2.50;;;1.60;;
11996;SDS011;6058;48.704;9.474;2024-03-29T09:50:51;1.40;;;1.30;;
11996;SDS011;6058;48.704;9.474;2024-03-29T09:53:20;5.17;;;3.47;;
11996;SDS011;6058;48.704;9.474;2024-03-29T09:55:48;4.43;;;3.20;;
11996;SDS011;6058;48.704;9.474;2024-03-29T09:58:15;2.30;;;1.97;;
11996;SDS011;6058;48.704;9.474;2024-03-29T10:00:42;1.90;;;1.50;;
11996;SDS011;6058;48.704;9.474;2024-03-29T10:03:09;1.30;;;1.20;;
11996;SDS011;6058;48.704;9.474;2024-03-29T10:05:38;1.40;;;1.10;;
11996;SDS011;6058;48.704;9.474;2024-03-29T10:08:05;1.80;;;1.10;;
11996;SDS011;6058;48.704;9.474;2024-03-29T10:10:34;1.10;;;1.00;;
11996;SDS011;6058;48.704;9.474;2024-03-29T10:13:01;1.20;;;1.20;;
11996;SDS011;6058;48.704;9.474;2024-03-29T10:15:29;1.67;;;1.13;;
11996;SDS011;6058;48.704;9.474;2024-03-29T10:17:58;1.40;;;1.30;;
11996;SDS011;6058;48.704;9.474;2024-03-29T10:20:25;1.73;;;1.60;;
11996;SDS011;6058;48.704;9.474;2024-03-29T10:22:55;2.10;;;1.43;;
11996;SDS011;6058;48.704;9.474;2024-03-29T10:25:27;1.00;;;0.80;;
11996;SDS011;6058;48.704;9.474;2024-03-29T10:27:54;1.27;;;1.17;;
11996;SDS011;6058;48.704;9.474;2024-03-29T10:30:21;2.13;;;1.20;;
11996;SDS011;6058;48.704;9.474;2024-03-29T10:32:48;1.53;;;1.30;;
11996;SDS011;6058;48.704;9.474;2024-03-29T10:35:15;3.73;;;1.30;;
11996;SDS011;6058;48.704;9.474;2024-03-29T10:37:42;1.37;;;0.90;;
11996;SDS011;6058;48.704;9.474;2024-03-29T10:40:11;1.43;;;1.03;;
11996;SDS011;6058;48.704;9.474;2024-03-29T10:42:41;2.00;;;1.00;;
11996;SDS011;6058;48.704;9.474;2024-03-29T10:45:09;1.20;;;1.10;;
11996;SDS011;6058;48.704;9.474;2024-03-29T10:47:37;0.77;;;0.77;;
11996;SDS011;6058;48.704;9.474;2024-03-29T10:50:06;0.60;;;0.60;;
11996;SDS011;6058;48.704;9.474;2024-03-29T10:52:35;0.90;;;0.90;;
11996;SDS011;6058;48.704;9.474;2024-03-29T10:55:02;1.70;;;1.00;;
11996;SDS011;6058;48.704;9.474;2024-03-29T10:57:31;1.20;;;0.90;;
11996;SDS011;6058;48.704;9.474;2024-03-29T11:00:03;1.37;;;1.07;;
11996;SDS011;6058;48.704;9.474;2024-03-29T11:02:33;1.63;;;1.33;;
11996;SDS011;6058;48.704;9.474;2024-03-29T11:05:03;2.83;;;1.40;;
11996;SDS011;6058;48.704;9.474;2024-03-29T11:07:33;1.30;;;1.20;;
11996;SDS011;6058;48.704;9.474;2024-03-29T11:10:01;0.97;;;0.97;;
11996;SDS011;6058;48.704;9.474;2024-03-29T11:12:31;1.77;;;1.20;;
11996;SDS011;6058;48.704;9.474;2024-03-29T11:15:00;1.40;;;1.30;;
11996;SDS011;6058;48.704;9.474;2024-03-29T11:17:42;1.30;;;1.20;;
11996;SDS011;6058;48.704;9.474;2024-03-29T11:20:09;1.40;;;1.30;;
11996;SDS011;6058;48.704;9.474;2024-03-29T11:22:40;1.70;;;1.60;;
11996;SDS011;6058;48.704;9.474;2024-03-29T11:25:07;1.20;;;1.07;;
11996;SDS011;6058;48.704;9.474;2024-03-29T11:27:39;1.43;;;1.20;;
11996;SDS011;6058;48.704;9.474;2024-03-29T11:30:07;2.00;;;1.30;;
11996;SDS011;6058;48.704;9.474;2024-03-29T11:32:35;2.67;;;1.17;;
11996;SDS011;6058;48.704;9.474;2024-03-29T11:35:03;1.33;;;1.00;;
11996;SDS011;6058;48.704;9.474;2024-03-29T11:37:31;1.10;;;1.00;;
11996;SDS011;6058;48.704;9.474;2024-03-29T11:39:59;1.20;;;1.10;;
11996;SDS011;6058;48.704;9.474;2024-03-29T11:42:36;0.97;;;0.97;;
11996;SDS011;6058;48.704;9.474;2024-03-29T11:45:05;2.13;;;1.23;;
11996;SDS011;6058;48.704;9.474;2024-03-29T11:47:35;1.10;;;0.90;;
11996;SDS011;6058;48.704;9.474;2024-03-29T11:50:03;1.00;;;0.90;;
11996;SDS011;6058;48.704;9.474;2024-03-29T11:52:30;1.37;;;0.90;;
11996;SDS011;6058;48.704;9.474;2024-03-29T11:54:57;1.20;;;1.10;;
11996;SDS011;6058;48.704;9.474;2024-03-29T11:57:25;1.20;;;1.10;;
11996;SDS011;6058;48.704;9.474;2024-03-29T11:59:52;1.13;;;1.10;;
11996;SDS011;6058;48.704;9.474;2024-03-29T12:02:20;2.67;;;1.20;;
11996;SDS011;6058;48.704;9.474;2024-03-29T12:04:47;2.03;;;0.90;;
11996;SDS011;6058;48.704;9.474;2024-03-29T12:07:14;1.73;;;0.80;;
11996;SDS011;6058;48.704;9.474;2024-03-29T12:09:43;0.60;;;0.60;;
11996;SDS011;6058;48.704;9.474;2024-03-29T12:12:10;0.97;;;0.80;;
11996;SDS011;6058;48.704;9.474;2024-03-29T12:14:41;0.90;;;0.70;;
11996;SDS011;6058;48.704;9.474;2024-03-29T12:17:09;0.53;;;0.53;;
11996;SDS011;6058;48.704;9.474;2024-03-29T12:19:38;1.17;;;0.90;;
11996;SDS011;6058;48.704;9.474;2024-03-29T12:22:07;2.87;;;0.70;;
11996;SDS011;6058;48.704;9.474;2024-03-29T12:24:34;0.67;;;0.67;;
11996;SDS011;6058;48.704;9.474;2024-03-29T12:27:01;0.70;;;0.70;;
11996;SDS011;6058;48.704;9.474;2024-03-29T12:29:28;0.60;;;0.60;;
11996;SDS011;6058;48.704;9.474;2024-03-29T12:31:58;0.70;;;0.70;;
11996;SDS011;6058;48.704;9.474;2024-03-29T12:34:26;0.90;;;0.80;;
11996;SDS011;6058;48.704;9.474;2024-03-29T12:36:54;0.67;;;0.67;;
11996;SDS011;6058;48.704;9.474;2024-03-29T12:39:25;0.70;;;0.70;;
11996;SDS011;6058;48.704;9.474;2024-03-29T12:41:52;1.43;;;0.97;;
11996;SDS011;6058;48.704;9.474;2024-03-29T12:44:24;0.93;;;0.80;;
11996;SDS011;6058;48.704;9.474;2024-03-29T12:46:51;0.90;;;0.77;;
11996;SDS011;6058;48.704;9.474;2024-03-29T12:49:18;0.80;;;0.70;;
11996;SDS011;6058;48.704;9.474;2024-03-29T12:51:45;0.70;;;0.70;;
11996;SDS011;6058;48.704;9.474;2024-03-29T12:54:14;3.30;;;1.10;;
11996;SDS011;6058;48.704;9.474;2024-03-29T12:56:43;1.20;;;0.70;;
11996;SDS011;6058;48.704;9.474;2024-03-29T12:59:10;1.10;;;1.00;;
11996;SDS011;6058;48.704;9.474;2024-03-29T13:01:38;1.10;;;0.73;;
11996;SDS011;6058;48.704;9.474;2024-03-29T13:04:05;2.60;;;0.70;;
11996;SDS011;6058;48.704;9.474;2024-03-29T13:06:32;0.97;;;0.90;;
11996;SDS011;6058;48.704;9.474;2024-03-29T13:08:59;0.77;;;0.77;;
11996;SDS011;6058;48.704;9.474;2024-03-29T13:11:28;0.97;;;0.73;;
11996;SDS011;6058;48.704;9.474;2024-03-29T13:13:55;0.83;;;0.83;;
11996;SDS011;6058;48.704;9.474;2024-03-29T13:16:22;1.00;;;0.90;;
11996;SDS011;6058;48.704;9.474;2024-03-29T13:18:50;1.47;;;0.60;;
11996;SDS011;6058;48.704;9.474;2024-03-29T13:21:17;0.70;;;0.70;;
11996;SDS011;6058;48.704;9.474;2024-03-29T13:23:44;1.73;;;0.63;;
11996;SDS011;6058;48.704;9.474;2024-03-29T13:26:11;1.00;;;0.60;;
11996;SDS011;6058;48.704;9.474;2024-03-29T13:28:40;0.80;;;0.80;;
11996;SDS011;6058;48.704;9.474;2024-03-29T13:31:07;0.67;;;0.60;;
11996;SDS011;6058;48.704;9.474;2024-03-29T13:33:34;2.60;;;1.10;;
11996;SDS011;6058;48.704;9.474;2024-03-29T13:36:02;0.67;;;0.67;;
11996;SDS011;6058;48.704;9.474;2024-03-29T13:38:29;0.90;;;0.90;;
11996;SDS011;6058;48.704;9.474;2024-03-29T13:41:00;1.00;;;0.90;;
11996;SDS011;6058;48.704;9.474;2024-03-29T13:43:28;0.70;;;0.70;;
11996;SDS011;6058;48.704;9.474;2024-03-29T13:45:56;0.60;;;0.60;;
11996;SDS011;6058;48.704;9.474;2024-03-29T13:48:24;1.27;;;0.80;;
11996;SDS011;6058;48.704;9.474;2024-03-29T13:50:51;1.00;;;0.60;;
11996;SDS011;6058;48.704;9.474;2024-03-29T13:53:18;0.63;;;0.57;;
11996;SDS011;6058;48.704;9.474;2024-03-29T13:55:46;0.60;;;0.60;;
11996;SDS011;6058;48.704;9.474;2024-03-29T13:58:19;3.30;;;0.77;;
11996;SDS011;6058;48.704;9.474;2024-03-29T14:00:48;0.80;;;0.80;;
11996;SDS011;6058;48.704;9.474;2024-03-29T14:03:18;0.93;;;0.67;;
11996;SDS011;6058;48.704;9.474;2024-03-29T14:05:45;0.90;;;0.80;;
11996;SDS011;6058;48.704;9.474;2024-03-29T14:08:12;0.93;;;0.67;;
11996;SDS011;6058;48.704;9.474;2024-03-29T14:10:39;0.80;;;0.60;;
11996;SDS011;6058;48.704;9.474;2024-03-29T14:13:08;2.53;;;0.70;;
11996;SDS011;6058;48.704;9.474;2024-03-29T14:15:35;1.07;;;0.73;;
11996;SDS011;6058;48.704;9.474;2024-03-29T14:18:02;1.07;;;0.93;;
11996;SDS011;6058;48.704;9.474;2024-03-29T14:20:32;0.70;;;0.70;;
11996;SDS011;6058;48.704;9.474;2024-03-29T14:22:59;1.83;;;0.87;;
11996;SDS011;6058;48.704;9.474;2024-03-29T14:25:29;1.43;;;0.60;;
11996;SDS011;6058;48.704;9.474;2024-03-29T14:27:56;1.60;;;0.67;;
11996;SDS011;6058;48.704;9.474;2024-03-29T14:30:24;0.83;;;0.60;;
11996;SDS011;6058;48.704;9.474;2024-03-29T14:32:52;0.67;;;0.67;;
11996;SDS011;6058;48.704;9.474;2024-03-29T14:35:19;1.03;;;0.73;;
11996;SDS011;6058;48.704;9.474;2024-03-29T14:37:48;0.60;;;0.60;;
11996;SDS011;6058;48.704;9.474;2024-03-29T14:40:15;0.90;;;0.67;;
11996;SDS011;6058;48.704;9.474;2024-03-29T14:42:43;0.70;;;0.70;;
11996;SDS011;6058;48.704;9.474;2024-03-29T14:45:10;0.70;;;0.70;;
11996;SDS011;6058;48.704;9.474;2024-03-29T14:47:38;0.97;;;0.90;;
11996;SDS011;6058;48.704;9.474;2024-03-29T14:50:05;0.60;;;0.60;;
11996;SDS011;6058;48.704;9.474;2024-03-29T14:52:33;1.03;;;0.80;;
11996;SDS011;6058;48.704;9.474;2024-03-29T14:55:01;0.70;;;0.70;;
11996;SDS011;6058;48.704;9.474;2024-03-29T14:57:29;1.20;;;0.60;;
11996;SDS011;6058;48.704;9.474;2024-03-29T14:59:56;0.83;;;0.63;;
11996;SDS011;6058;48.704;9.474;2024-03-29T15:02:23;1.23;;;0.50;;
11996;SDS011;6058;48.704;9.474;2024-03-29T15:04:50;0.83;;;0.70;;